Time;durP1;ratioP1;P1;durP2;ratioP2;P2;SDS_P1;SDS_P2;PMS_P1;PMS_P2;Temp;Humidity;BMP_temperature;BMP_pressure;BME280_temperature;BME280_humidity;BME280_pressure;Samples;Min_cycle;Max_cycle;Signal;HPM_P1;HPM_P2
2022/06/05 00:02:05;;;;;;;;;;;12.70;99.90;;;;;;5025339;28;19986;-78
2022/06/05 00:04:41;;;;;;;;;;;12.60;99.90;;;;;;5013611;28;20482;-78
2022/06/05 00:07:12;;;;;;;;;;;12.60;99.90;;;;;;5010003;28;19929;-78
2022/06/05 00:09:49;;;;;;;;;;;12.60;99.90;;;;;;4977090;28;20010;-78
2022/06/05 00:12:18;;;;;;;;;;;12.60;99.90;;;;;;5011205;28;19933;-78
2022/06/05 00:14:44;;;;;;;;;;;12.60;99.90;;;;;;5008402;28;19979;-78
2022/06/05 00:17:15;;;;;;;;;;;12.80;99.90;;;;;;5008284;28;19972;-77
2022/06/05 00:19:43;;;;;;;;;;;12.60;99.90;;;;;;5007359;28;19928;-77
2022/06/05 00:22:08;;;;;;;;;;;12.60;99.90;;;;;;5007833;28;19931;-77
2022/06/05 00:24:34;;;;;;;;;;;12.70;99.90;;;;;;5023200;28;19936;-78
2022/06/05 00:27:04;;;;;;;;;;;12.70;99.90;;;;;;5025246;28;19933;-78
2022/06/05 00:29:33;;;;;;;;;;;12.60;99.90;;;;;;5021814;28;20150;-78
2022/06/05 00:32:07;;;;;;;;;;;12.60;99.90;;;;;;5010567;28;19940;-78
2022/06/05 00:34:33;;;;;;;;;;;12.60;99.90;;;;;;5026463;28;20003;-78
2022/06/05 00:37:13;;;;;;;;;;;12.60;99.90;;;;;;4985599;28;19929;-78
2022/06/05 00:39:44;;;;;;;;;;;12.60;99.90;;;;;;5008684;28;20040;-77
2022/06/05 00:42:11;;;;;;;;;;;12.60;99.90;;;;;;5025844;28;20412;-78
2022/06/05 00:44:37;;;;;;;;;;;12.50;99.90;;;;;;5026213;28;20394;-78
2022/06/05 00:47:03;;;;;;;;;;;12.50;99.90;;;;;;5009445;28;19933;-78
2022/06/05 00:49:33;;;;;;;;;;;12.50;99.90;;;;;;5024340;28;19937;-77
2022/06/05 00:51:59;;;;;;;;;;;12.50;99.90;;;;;;5009343;28;19964;-77
2022/06/05 00:54:25;;;;;;;;;;;12.40;99.90;;;;;;4996092;28;20564;-77
2022/06/05 00:56:51;;;;;;;;;;;12.50;99.90;;;;;;5012832;28;19959;-77
2022/06/05 00:59:17;;;;;;;;;;;12.70;99.90;;;;;;5017371;28;19994;-78
2022/06/05 01:01:43;;;;;;;;;;;12.60;99.90;;;;;;5019465;28;20441;-78
2022/06/05 01:04:09;;;;;;;;;;;12.60;99.90;;;;;;5019596;28;19933;-77
2022/06/05 01:06:34;;;;;;;;;;;12.60;99.90;;;;;;5017821;28;19925;-78
2022/06/05 01:09:01;;;;;;;;;;;12.60;99.90;;;;;;5026551;28;21155;-77
2022/06/05 01:11:38;;;;;;;;;;;12.60;99.90;;;;;;5008364;28;19929;-77
2022/06/05 01:14:17;;;;;;;;;;;12.50;99.90;;;;;;5022095;28;19959;-78
2022/06/05 01:16:47;;;;;;;;;;;12.60;99.90;;;;;;5024015;28;19956;-78
2022/06/05 01:19:29;;;;;;;;;;;12.50;99.90;;;;;;5023980;28;20014;-78
2022/06/05 01:21:54;;;;;;;;;;;12.40;99.90;;;;;;5022879;28;19936;-78
2022/06/05 01:24:23;;;;;;;;;;;12.50;99.90;;;;;;4984409;28;19935;-78
2022/06/05 01:26:56;;;;;;;;;;;12.40;99.90;;;;;;5019997;28;19937;-78
2022/06/05 01:29:44;;;;;;;;;;;12.30;99.90;;;;;;4980477;28;19930;-77
2022/06/05 01:32:16;;;;;;;;;;;12.40;99.90;;;;;;5005875;28;20375;-77
2022/06/05 01:34:53;;;;;;;;;;;12.30;99.90;;;;;;4987001;28;19964;-77
2022/06/05 01:37:33;;;;;;;;;;;12.30;99.90;;;;;;5003318;28;20882;-77
2022/06/05 01:40:04;;;;;;;;;;;12.30;99.90;;;;;;4987535;28;19929;-77
2022/06/05 01:42:41;;;;;;;;;;;12.40;99.90;;;;;;5004005;28;19929;-77
2022/06/05 01:45:16;;;;;;;;;;;12.30;99.90;;;;;;4984593;28;19933;-78
2022/06/05 01:47:44;;;;;;;;;;;12.30;99.90;;;;;;5003710;28;19929;-78
2022/06/05 01:50:13;;;;;;;;;;;12.30;99.90;;;;;;5005948;28;20341;-77
2022/06/05 01:53:08;;;;;;;;;;;12.40;99.90;;;;;;4999918;28;20427;-78
2022/06/05 01:55:45;;;;;;;;;;;12.40;99.90;;;;;;4978863;28;20553;-77
2022/06/05 01:58:12;;;;;;;;;;;12.30;99.90;;;;;;4988584;28;19937;-78
2022/06/05 02:00:38;;;;;;;;;;;12.30;99.90;;;;;;4978265;28;19929;-77
2022/06/05 02:03:10;;;;;;;;;;;12.30;99.90;;;;;;5002615;28;20286;-77
2022/06/05 02:05:55;;;;;;;;;;;12.40;99.90;;;;;;5004834;28;20069;-77
2022/06/05 02:08:24;;;;;;;;;;;12.30;99.90;;;;;;5002316;28;20302;-78
2022/06/05 02:11:07;;;;;;;;;;;12.40;99.90;;;;;;4999196;28;20148;-77
2022/06/05 02:13:32;;;;;;;;;;;12.30;99.90;;;;;;5001084;28;19968;-78
2022/06/05 02:15:58;;;;;;;;;;;12.30;99.90;;;;;;4986183;28;20012;-78
2022/06/05 02:18:24;;;;;;;;;;;12.30;99.90;;;;;;5003166;28;19929;-78
2022/06/05 02:20:50;;;;;;;;;;;12.20;99.90;;;;;;4983881;28;20463;-78
2022/06/05 02:23:18;;;;;;;;;;;12.40;99.90;;;;;;5002582;28;20020;-77
2022/06/05 02:25:43;;;;;;;;;;;12.40;99.90;;;;;;5000178;28;19935;-78
2022/06/05 02:28:12;;;;;;;;;;;12.50;99.90;;;;;;5001005;28;19928;-77
2022/06/05 02:30:54;;;;;;;;;;;12.30;99.90;;;;;;5023899;28;20058;-78
2022/06/05 02:33:27;;;;;;;;;;;12.40;99.90;;;;;;5026213;28;20478;-77
2022/06/05 02:36:00;;;;;;;;;;;12.40;99.90;;;;;;5005689;28;20364;-77
2022/06/05 02:38:47;;;;;;;;;;;12.30;99.90;;;;;;5028439;28;20305;-77
2022/06/05 02:41:15;;;;;;;;;;;12.20;99.90;;;;;;5026502;28;19964;-78
2022/06/05 02:44:28;;;;;;;;;;;12.40;99.90;;;;;;5030076;28;19928;-78
2022/06/05 02:46:36;;;;;;;;;;;12.40;99.90;;;;;;5027795;28;19929;-77
2022/06/05 02:49:16;;;;;;;;;;;12.30;99.90;;;;;;5030939;28;19941;-78
2022/06/05 02:51:43;;;;;;;;;;;12.30;99.90;;;;;;5030045;28;20614;-78
2022/06/05 02:54:17;;;;;;;;;;;12.30;99.90;;;;;;5011530;28;20027;-77
2022/06/05 02:56:42;;;;;;;;;;;12.20;99.90;;;;;;5029861;28;19935;-77
2022/06/05 02:59:08;;;;;;;;;;;12.30;99.90;;;;;;5027659;28;19932;-78
2022/06/05 03:04:18;;;;;;;;;;;12.40;99.90;;;;;;5011468;28;20381;-78
2022/06/05 03:06:44;;;;;;;;;;;12.40;99.90;;;;;;5010984;28;20028;-77
2022/06/05 03:09:10;;;;;;;;;;;12.40;99.90;;;;;;5028750;28;19937;-77
2022/06/05 03:11:36;;;;;;;;;;;12.30;99.90;;;;;;5010738;28;20472;-77
2022/06/05 03:14:01;;;;;;;;;;;12.30;99.90;;;;;;5009563;28;19939;-78
2022/06/05 03:16:31;;;;;;;;;;;12.30;99.90;;;;;;5029357;28;19933;-77
2022/06/05 03:18:56;;;;;;;;;;;12.30;99.90;;;;;;5010953;28;20534;-77
2022/06/05 03:21:22;;;;;;;;;;;12.30;99.90;;;;;;5027536;28;19936;-78
2022/06/05 03:23:48;;;;;;;;;;;12.40;99.90;;;;;;5010754;28;20509;-78
2022/06/05 03:26:14;;;;;;;;;;;12.50;99.90;;;;;;4997271;28;19924;-77
2022/06/05 03:28:40;;;;;;;;;;;12.40;99.90;;;;;;5026110;28;19940;-78
2022/06/05 03:31:07;;;;;;;;;;;12.50;99.90;;;;;;4995371;28;19934;-78
2022/06/05 03:33:32;;;;;;;;;;;12.40;99.90;;;;;;4997173;28;19929;-78
2022/06/05 03:35:58;;;;;;;;;;;12.50;99.90;;;;;;4992439;28;20115;-77
2022/06/05 03:38:24;;;;;;;;;;;12.40;99.90;;;;;;5009454;28;19929;-77
2022/06/05 03:40:49;;;;;;;;;;;12.50;99.90;;;;;;5011418;28;19929;-78
2022/06/05 03:43:15;;;;;;;;;;;12.50;99.90;;;;;;5011584;28;19933;-77
2022/06/05 03:45:41;;;;;;;;;;;12.50;99.90;;;;;;5010372;28;20009;-78
2022/06/05 03:48:07;;;;;;;;;;;12.60;99.90;;;;;;5010631;28;19970;-78
2022/06/05 03:50:33;;;;;;;;;;;12.60;99.90;;;;;;4990725;28;19936;-78
2022/06/05 03:52:59;;;;;;;;;;;12.60;99.90;;;;;;5009818;28;19929;-78
2022/06/05 03:55:25;;;;;;;;;;;12.60;99.90;;;;;;5011048;28;20041;-78
2022/06/05 03:57:50;;;;;;;;;;;12.60;99.90;;;;;;4994909;28;19929;-77
2022/06/05 04:00:17;;;;;;;;;;;12.60;99.90;;;;;;4993122;28;19940;-77
2022/06/05 04:02:43;;;;;;;;;;;12.60;99.90;;;;;;5007924;28;20685;-78
2022/06/05 04:05:09;;;;;;;;;;;12.80;99.90;;;;;;4991071;28;20007;-77
2022/06/05 04:07:35;;;;;;;;;;;12.70;99.90;;;;;;4990370;28;20089;-78
2022/06/05 04:10:00;;;;;;;;;;;12.80;99.90;;;;;;5009533;28;20530;-78
2022/06/05 04:12:26;;;;;;;;;;;12.90;99.90;;;;;;5009037;28;20197;-78
2022/06/05 04:14:52;;;;;;;;;;;12.80;99.90;;;;;;5008928;28;19952;-78
2022/06/05 04:17:17;;;;;;;;;;;12.90;99.90;;;;;;5014141;28;19941;-78
2022/06/05 04:19:43;;;;;;;;;;;13.00;99.90;;;;;;5007575;28;19936;-78
2022/06/05 04:22:09;;;;;;;;;;;13.20;99.90;;;;;;4995429;28;20280;-78
2022/06/05 04:24:34;;;;;;;;;;;13.20;99.90;;;;;;4993260;28;20012;-78
2022/06/05 04:27:00;;;;;;;;;;;13.30;99.90;;;;;;5009650;28;19936;-78
2022/06/05 04:29:25;;;;;;;;;;;13.40;99.90;;;;;;5008306;28;19932;-78
2022/06/05 04:31:51;;;;;;;;;;;13.40;99.90;;;;;;5006146;28;20399;-78
2022/06/05 04:34:19;;;;;;;;;;;13.50;99.90;;;;;;4964878;28;20856;-78
2022/06/05 04:36:45;;;;;;;;;;;13.60;99.90;;;;;;5008100;28;20473;-78
2022/06/05 04:39:11;;;;;;;;;;;13.60;99.90;;;;;;5007974;28;19940;-78
2022/06/05 04:41:37;;;;;;;;;;;13.70;99.90;;;;;;5008167;28;20008;-78
2022/06/05 04:44:03;;;;;;;;;;;13.90;99.90;;;;;;4974637;28;20396;-78
2022/06/05 04:46:29;;;;;;;;;;;14.30;99.90;;;;;;4981742;28;19999;-78
2022/06/05 04:48:55;;;;;;;;;;;14.20;99.90;;;;;;5009738;28;19925;-78
2022/06/05 04:51:21;;;;;;;;;;;14.30;99.90;;;;;;5008617;28;19935;-78
2022/06/05 04:53:47;;;;;;;;;;;14.40;99.90;;;;;;5007696;28;19941;-78
2022/06/05 04:56:15;;;;;;;;;;;14.30;99.90;;;;;;4983016;28;20019;-78
2022/06/05 04:58:41;;;;;;;;;;;14.50;99.90;;;;;;4962877;28;20570;-78
2022/06/05 05:01:11;;;;;;;;;;;14.90;99.90;;;;;;5009839;28;20830;-78
2022/06/05 05:03:36;;;;;;;;;;;15.50;99.90;;;;;;4990200;28;19940;-77
2022/06/05 05:06:02;;;;;;;;;;;15.90;99.90;;;;;;5007731;28;19976;-78
2022/06/05 05:08:27;;;;;;;;;;;15.80;99.90;;;;;;5009687;28;20008;-79
2022/06/05 05:10:53;;;;;;;;;;;17.00;99.90;;;;;;5006833;28;19936;-78
2022/06/05 05:13:19;;;;;;;;;;;17.00;99.90;;;;;;5008547;28;20760;-79
2022/06/05 05:15:48;;;;;;;;;;;17.90;99.90;;;;;;5006193;28;20391;-79
2022/06/05 05:18:14;;;;;;;;;;;17.70;99.90;;;;;;4990536;28;19929;-78
2022/06/05 05:20:39;;;;;;;;;;;17.60;99.90;;;;;;5007189;28;19929;-78
2022/06/05 05:23:05;;;;;;;;;;;18.70;99.90;;;;;;4990382;28;19929;-78
2022/06/05 05:25:30;;;;;;;;;;;18.10;99.90;;;;;;5007300;28;19929;-78
2022/06/05 05:27:56;;;;;;;;;;;17.30;99.90;;;;;;4990817;28;19929;-79
2022/06/05 05:30:22;;;;;;;;;;;17.70;99.90;;;;;;5022892;28;20014;-79
2022/06/05 05:32:47;;;;;;;;;;;17.50;99.90;;;;;;5008306;28;20642;-79
2022/06/05 05:35:13;;;;;;;;;;;16.70;99.90;;;;;;5025882;28;20543;-79
2022/06/05 05:37:38;;;;;;;;;;;16.30;99.90;;;;;;5007818;28;19928;-78
2022/06/05 05:42:48;;;;;;;;;;;16.10;99.90;;;;;;5024149;28;20578;-78
2022/06/05 05:45:14;;;;;;;;;;;15.80;99.90;;;;;;5027667;28;20298;-78
2022/06/05 05:47:40;;;;;;;;;;;15.90;99.90;;;;;;5022907;28;19932;-78
2022/06/05 05:50:07;;;;;;;;;;;15.70;99.90;;;;;;5025766;28;19972;-78
2022/06/05 05:52:33;;;;;;;;;;;15.80;99.90;;;;;;5007157;28;19929;-78
2022/06/05 05:54:59;;;;;;;;;;;15.80;99.90;;;;;;4999421;28;19982;-78
2022/06/05 05:57:25;;;;;;;;;;;15.70;99.90;;;;;;5027821;28;19929;-78
2022/06/05 05:59:51;;;;;;;;;;;15.90;99.90;;;;;;5022506;28;20402;-78
2022/06/05 06:02:21;;;;;;;;;;;15.90;99.90;;;;;;5024853;28;19939;-78
2022/06/05 06:04:47;;;;;;;;;;;15.90;99.90;;;;;;5026734;28;19936;-78
2022/06/05 06:07:13;;;;;;;;;;;16.10;99.90;;;;;;4990695;28;20491;-79
2022/06/05 06:09:39;;;;;;;;;;;16.00;99.90;;;;;;5007973;28;19936;-78
2022/06/05 06:12:05;;;;;;;;;;;16.00;99.90;;;;;;5004527;28;19928;-78
2022/06/05 06:14:33;;;;;;;;;;;16.10;99.90;;;;;;5027873;28;19925;-79
2022/06/05 06:16:58;;;;;;;;;;;16.10;99.90;;;;;;5026345;28;19933;-78
2022/06/05 06:19:24;;;;;;;;;;;16.00;99.90;;;;;;5026721;28;20276;-78
2022/06/05 06:21:50;;;;;;;;;;;16.30;99.90;;;;;;5025256;28;20541;-79
2022/06/05 06:24:15;;;;;;;;;;;16.30;99.90;;;;;;5008410;28;19932;-78
2022/06/05 06:26:41;;;;;;;;;;;16.50;99.90;;;;;;5006960;28;20128;-79
2022/06/05 06:29:07;;;;;;;;;;;16.60;99.90;;;;;;5024522;28;19929;-80
2022/06/05 06:31:34;;;;;;;;;;;16.70;99.90;;;;;;5026759;28;20083;-79
2022/06/05 06:34:01;;;;;;;;;;;16.90;99.90;;;;;;5009807;28;20460;-79
2022/06/05 06:36:27;;;;;;;;;;;17.10;99.90;;;;;;5027963;28;20022;-79
2022/06/05 06:38:53;;;;;;;;;;;17.30;99.90;;;;;;5024084;28;20297;-80
2022/06/05 06:41:20;;;;;;;;;;;17.50;99.90;;;;;;5008012;28;19924;-78
2022/06/05 06:43:46;;;;;;;;;;;17.60;99.90;;;;;;5024176;28;20025;-80
2022/06/05 06:46:12;;;;;;;;;;;18.00;99.90;;;;;;5009065;28;19936;-79
2022/06/05 06:48:38;;;;;;;;;;;17.80;99.90;;;;;;4982265;28;19968;-79
2022/06/05 06:51:04;;;;;;;;;;;17.90;99.90;;;;;;5028321;28;20508;-79
2022/06/05 06:53:31;;;;;;;;;;;18.00;99.90;;;;;;5006985;28;20023;-79
2022/06/05 06:55:56;;;;;;;;;;;17.90;99.90;;;;;;5026761;28;20007;-78
2022/06/05 06:58:22;;;;;;;;;;;18.00;99.90;;;;;;5026852;28;19929;-79
2022/06/05 07:00:48;;;;;;;;;;;18.30;99.90;;;;;;5026411;28;19928;-79
2022/06/05 07:03:14;;;;;;;;;;;18.70;99.90;;;;;;5027875;28;19928;-80
2022/06/05 07:05:40;;;;;;;;;;;18.50;99.90;;;;;;5005790;28;19929;-80
2022/06/05 07:08:05;;;;;;;;;;;18.60;99.90;;;;;;5008168;28;19929;-79
2022/06/05 07:10:31;;;;;;;;;;;19.10;99.90;;;;;;4996463;28;19935;-81
2022/06/05 07:12:57;;;;;;;;;;;18.70;99.90;;;;;;5023857;28;20334;-79
2022/06/05 07:15:22;;;;;;;;;;;19.00;99.90;;;;;;5026111;28;19986;-78
2022/06/05 07:17:48;;;;;;;;;;;19.10;99.90;;;;;;5022442;28;20305;-77
2022/06/05 07:20:14;;;;;;;;;;;19.10;99.90;;;;;;5022493;28;20461;-78
2022/06/05 07:22:40;;;;;;;;;;;18.80;99.90;;;;;;5024252;28;19990;-78
2022/06/05 07:25:06;;;;;;;;;;;18.90;99.90;;;;;;5008789;28;19940;-78
2022/06/05 07:27:32;;;;;;;;;;;18.70;99.90;;;;;;5025201;28;19928;-79
2022/06/05 07:29:57;;;;;;;;;;;19.10;99.90;;;;;;5008761;28;19939;-79
2022/06/05 07:32:23;;;;;;;;;;;19.30;99.90;;;;;;5028354;28;19937;-78
2022/06/05 07:34:49;;;;;;;;;;;19.60;99.90;;;;;;5011125;28;19924;-79
2022/06/05 07:37:14;;;;;;;;;;;19.50;99.90;;;;;;5027751;28;19972;-78
2022/06/05 07:39:40;;;;;;;;;;;19.60;99.90;;;;;;5011115;28;20539;-78
2022/06/05 07:42:06;;;;;;;;;;;19.90;99.90;;;;;;5028010;28;19937;-78
2022/06/05 07:44:32;;;;;;;;;;;19.60;99.90;;;;;;5010040;28;19940;-79
2022/06/05 07:46:58;;;;;;;;;;;19.50;99.90;;;;;;5026255;28;20678;-80
2022/06/05 07:49:24;;;;;;;;;;;19.30;99.90;;;;;;5023854;28;20613;-79
2022/06/05 07:54:34;;;;;;;;;;;19.40;99.90;;;;;;4988437;28;19932;-79
2022/06/05 07:57:02;;;;;;;;;;;19.60;99.90;;;;;;5024939;28;19928;-78
2022/06/05 07:59:28;;;;;;;;;;;19.40;99.90;;;;;;5028043;28;19929;-79
2022/06/05 08:01:56;;;;;;;;;;;19.30;99.90;;;;;;5006343;28;19929;-78
2022/06/05 08:04:22;;;;;;;;;;;19.50;99.90;;;;;;5020835;28;19929;-79
2022/06/05 08:06:48;;;;;;;;;;;19.60;99.90;;;;;;5018180;28;19928;-80
2022/06/05 08:09:14;;;;;;;;;;;19.50;99.90;;;;;;5018304;28;19990;-79
2022/06/05 08:11:42;;;;;;;;;;;19.50;99.90;;;;;;5017493;28;20071;-80
2022/06/05 08:14:09;;;;;;;;;;;19.80;99.90;;;;;;5028502;28;19929;-79
2022/06/05 08:16:34;;;;;;;;;;;19.70;99.90;;;;;;4998702;28;19927;-79
2022/06/05 08:19:00;;;;;;;;;;;19.80;99.90;;;;;;5028187;28;19933;-79
2022/06/05 08:21:26;;;;;;;;;;;19.90;99.90;;;;;;5029088;28;19936;-79
2022/06/05 08:23:52;;;;;;;;;;;20.10;99.90;;;;;;5023169;28;19936;-79
2022/06/05 08:26:17;;;;;;;;;;;20.00;99.90;;;;;;5025121;28;19929;-79
2022/06/05 08:28:43;;;;;;;;;;;20.00;99.90;;;;;;5022587;28;19933;-79
2022/06/05 08:31:10;;;;;;;;;;;20.30;99.90;;;;;;5007253;28;20206;-79
2022/06/05 08:33:36;;;;;;;;;;;20.60;99.90;;;;;;5023672;28;19929;-79
2022/06/05 08:36:02;;;;;;;;;;;20.70;99.90;;;;;;5021695;28;20013;-79
2022/06/05 08:41:27;;;;;;;;;;;20.80;99.90;;;;;;5022620;28;19944;-79
2022/06/05 08:44:07;;;;;;;;;;;20.80;99.90;;;;;;5020844;28;19980;-79
2022/06/05 08:46:40;;;;;;;;;;;20.70;99.90;;;;;;5004607;28;19929;-79
2022/06/05 08:49:05;;;;;;;;;;;21.20;99.90;;;;;;5019028;28;19932;-79
2022/06/05 08:51:39;;;;;;;;;;;20.90;99.90;;;;;;5005730;28;20612;-79
2022/06/05 08:54:28;;;;;;;;;;;20.70;99.90;;;;;;5005460;28;19933;-80
2022/06/05 08:56:58;;;;;;;;;;;20.90;99.90;;;;;;5002710;28;19940;-79
2022/06/05 08:59:59;;;;;;;;;;;21.20;99.90;;;;;;4995511;28;20373;-77
2022/06/05 09:02:27;;;;;;;;;;;21.10;99.90;;;;;;4897940;28;19930;-79
2022/06/05 09:05:02;;;;;;;;;;;21.40;99.90;;;;;;4986811;28;19935;-78
2022/06/05 09:07:31;;;;;;;;;;;21.60;99.90;;;;;;4994721;28;19929;-79
2022/06/05 09:09:59;;;;;;;;;;;22.00;99.90;;;;;;4990472;28;20305;-78
2022/06/05 09:12:32;;;;;;;;;;;22.10;99.90;;;;;;5015518;28;19929;-80
2022/06/05 09:15:00;;;;;;;;;;;22.30;99.90;;;;;;5021766;28;20035;-79
2022/06/05 09:17:26;;;;;;;;;;;22.00;99.90;;;;;;5023797;28;19935;-80
2022/06/05 09:19:53;;;;;;;;;;;22.10;99.90;;;;;;5018759;28;20341;-81
2022/06/05 09:22:44;;;;;;;;;;;22.30;99.90;;;;;;5003660;28;19951;-80
2022/06/05 09:25:22;;;;;;;;;;;22.20;99.90;;;;;;5020943;28;19929;-79
2022/06/05 09:27:50;;;;;;;;;;;22.40;99.90;;;;;;4999845;28;19971;-78
2022/06/05 09:30:22;;;;;;;;;;;22.20;99.90;;;;;;5011115;28;19994;-79
2022/06/05 09:33:03;;;;;;;;;;;22.00;99.90;;;;;;5003189;28;19935;-78
2022/06/05 09:35:33;;;;;;;;;;;22.30;99.90;;;;;;4992809;28;19972;-79
2022/06/05 09:37:59;;;;;;;;;;;22.50;99.90;;;;;;5000626;28;19940;-79
2022/06/05 09:40:35;;;;;;;;;;;22.20;99.90;;;;;;4986300;28;19929;-79
2022/06/05 09:43:25;;;;;;;;;;;22.50;99.90;;;;;;4973447;28;19928;-80
2022/06/05 09:46:08;;;;;;;;;;;22.90;99.90;;;;;;4988683;28;20095;-82
2022/06/05 09:48:53;;;;;;;;;;;22.90;99.90;;;;;;4987928;28;19936;-81
2022/06/05 09:51:19;;;;;;;;;;;23.10;99.90;;;;;;5016637;28;20289;-77
2022/06/05 09:54:03;;;;;;;;;;;22.90;99.90;;;;;;4991083;28;22077;-80
2022/06/05 09:58:24;;;;;;;;;;;22.40;99.90;;;;;;5018403;28;19990;-79
2022/06/05 09:59:31;;;;;;;;;;;22.30;99.90;;;;;;5007892;28;19975;-81
2022/06/05 10:01:59;;;;;;;;;;;22.40;99.90;;;;;;5001924;28;19935;-79
2022/06/05 10:04:28;;;;;;;;;;;22.40;99.90;;;;;;5015109;28;19933;-81
2022/06/05 10:06:56;;;;;;;;;;;22.70;99.90;;;;;;5019181;28;20483;-81
2022/06/05 10:09:24;;;;;;;;;;;22.90;99.90;;;;;;5013576;28;19936;-79
2022/06/05 10:12:02;;;;;;;;;;;22.80;99.90;;;;;;5011629;28;19932;-79
2022/06/05 10:14:28;;;;;;;;;;;23.00;99.90;;;;;;4998301;28;19979;-79
2022/06/05 10:17:13;;;;;;;;;;;23.10;99.90;;;;;;5013592;28;19983;-80
2022/06/05 10:19:57;;;;;;;;;;;23.60;99.90;;;;;;4993408;28;19929;-80
2022/06/05 10:22:28;;;;;;;;;;;22.90;99.90;;;;;;5015151;28;19929;-79
2022/06/05 10:25:13;;;;;;;;;;;22.90;99.90;;;;;;4998957;28;20854;-78
2022/06/05 10:27:46;;;;;;;;;;;22.90;99.90;;;;;;5012179;28;19933;-80
2022/06/05 10:30:15;;;;;;;;;;;22.90;99.90;;;;;;4997832;28;19936;-79
2022/06/05 10:32:57;;;;;;;;;;;23.30;99.90;;;;;;5016163;28;19928;-82
2022/06/05 10:35:25;;;;;;;;;;;23.40;99.90;;;;;;5009354;28;21085;-84
2022/06/05 10:37:54;;;;;;;;;;;23.30;99.90;;;;;;5014117;28;19929;-80
2022/06/05 10:40:32;;;;;;;;;;;23.00;99.90;;;;;;5017677;28;19929;-80
2022/06/05 10:43:03;;;;;;;;;;;23.20;99.90;;;;;;5016543;28;19935;-78
2022/06/05 10:45:33;;;;;;;;;;;23.00;99.90;;;;;;4991692;28;20413;-80
2022/06/05 10:48:06;;;;;;;;;;;22.80;99.90;;;;;;5013906;28;19999;-79
2022/06/05 10:50:53;;;;;;;;;;;22.80;99.90;;;;;;5014930;28;19925;-82
2022/06/05 10:53:22;;;;;;;;;;;22.80;99.90;;;;;;5010827;28;19932;-80
2022/06/05 10:56:07;;;;;;;;;;;22.80;99.90;;;;;;5009481;28;20554;-80
2022/06/05 10:58:32;;;;;;;;;;;22.60;99.90;;;;;;4990330;28;19936;-79
2022/06/05 11:00:58;;;;;;;;;;;22.60;99.90;;;;;;5001619;28;19929;-79
2022/06/05 11:03:36;;;;;;;;;;;22.50;99.90;;;;;;5015561;28;19929;-80
2022/06/05 11:06:24;;;;;;;;;;;22.50;99.90;;;;;;5017822;28;19955;-82
2022/06/05 11:09:00;;;;;;;;;;;22.40;99.90;;;;;;5020794;28;20374;-80
2022/06/05 11:14:50;;;;;;;;;;;22.40;99.90;;;;;;5005274;28;19940;-79
2022/06/05 11:17:32;;;;;;;;;;;22.40;99.90;;;;;;5003699;28;19932;-79
2022/06/05 11:20:03;;;;;;;;;;;22.40;99.90;;;;;;5019382;28;20366;-79
2022/06/05 11:22:29;;;;;;;;;;;22.40;99.90;;;;;;5004117;28;20509;-78
2022/06/05 11:24:56;;;;;;;;;;;22.50;99.90;;;;;;5003054;28;19940;-80
2022/06/05 11:27:22;;;;;;;;;;;22.50;99.90;;;;;;5016965;28;19933;-79
2022/06/05 11:29:54;;;;;;;;;;;22.60;99.90;;;;;;5017779;28;20256;-79
2022/06/05 11:32:19;;;;;;;;;;;22.60;99.90;;;;;;5022342;28;19925;-82
2022/06/05 11:34:48;;;;;;;;;;;22.70;99.90;;;;;;5020534;28;19986;-78
2022/06/05 11:37:14;;;;;;;;;;;22.70;99.90;;;;;;5000313;28;19960;-79
2022/06/05 11:39:44;;;;;;;;;;;22.70;99.90;;;;;;5022455;28;20011;-79
2022/06/05 11:42:24;;;;;;;;;;;22.80;99.90;;;;;;5020649;28;19928;-79
2022/06/05 11:44:49;;;;;;;;;;;22.80;99.90;;;;;;4987258;28;19929;-80
2022/06/05 11:47:29;;;;;;;;;;;22.80;99.90;;;;;;5022648;28;19932;-79
2022/06/05 11:50:20;;;;;;;;;;;22.80;99.90;;;;;;5023986;28;19990;-79
2022/06/05 11:53:11;;;;;;;;;;;22.80;99.90;;;;;;5025649;28;19932;-79
2022/06/05 11:55:45;;;;;;;;;;;22.80;99.90;;;;;;5013545;28;20427;-79
2022/06/05 11:58:13;;;;;;;;;;;22.80;99.90;;;;;;4982205;28;19925;-79
2022/06/05 12:00:43;;;;;;;;;;;22.90;99.90;;;;;;5016968;28;19929;-80
2022/06/05 12:03:21;;;;;;;;;;;22.80;99.90;;;;;;5015870;28;19929;-78
2022/06/05 12:06:02;;;;;;;;;;;22.80;99.90;;;;;;5024580;28;19979;-79
2022/06/05 12:08:38;;;;;;;;;;;22.90;99.90;;;;;;5009565;28;20642;-79
2022/06/05 12:11:10;;;;;;;;;;;22.90;99.90;;;;;;5005486;28;20866;-79
2022/06/05 12:13:36;;;;;;;;;;;22.90;99.90;;;;;;5006454;28;21274;-80
2022/06/05 12:16:08;;;;;;;;;;;23.00;99.90;;;;;;5026313;28;20282;-80
2022/06/05 12:18:42;;;;;;;;;;;23.00;99.90;;;;;;5024324;28;19928;-81
2022/06/05 12:21:23;;;;;;;;;;;23.00;99.90;;;;;;5026295;28;20010;-80
2022/06/05 12:23:59;;;;;;;;;;;23.00;99.90;;;;;;5023157;28;19976;-77
2022/06/05 12:26:34;;;;;;;;;;;23.10;99.90;;;;;;4996048;28;20051;-79
2022/06/05 12:29:03;;;;;;;;;;;23.10;99.90;;;;;;5016114;28;20382;-79
2022/06/05 12:31:31;;;;;;;;;;;23.10;99.90;;;;;;5020486;28;22112;-81
2022/06/05 12:34:02;;;;;;;;;;;23.20;99.90;;;;;;5023496;28;19933;-80
2022/06/05 12:36:30;;;;;;;;;;;23.20;99.90;;;;;;5011098;28;20396;-80
2022/06/05 12:39:00;;;;;;;;;;;23.30;99.90;;;;;;5027461;28;20535;-80
2022/06/05 12:41:39;;;;;;;;;;;23.50;99.90;;;;;;5021796;28;19940;-80
2022/06/05 12:50:49;;;;;;;;;;;23.40;99.90;;;;;;5025902;28;19928;-79
2022/06/05 12:53:21;;;;;;;;;;;23.40;99.90;;;;;;5023365;28;19933;-80
2022/06/05 12:55:49;;;;;;;;;;;23.50;99.90;;;;;;5024466;28;19993;-80
2022/06/05 12:58:18;;;;;;;;;;;23.40;99.90;;;;;;5029639;28;20036;-80
2022/06/05 13:01:02;;;;;;;;;;;23.40;99.90;;;;;;5013700;28;19935;-79
2022/06/05 13:03:33;;;;;;;;;;;23.40;99.90;;;;;;5023319;28;19956;-78
2022/06/05 13:06:13;;;;;;;;;;;23.40;99.90;;;;;;5025488;28;19928;-79
2022/06/05 13:08:47;;;;;;;;;;;23.40;99.90;;;;;;5020089;28;19933;-79
2022/06/05 13:11:13;;;;;;;;;;;23.30;99.90;;;;;;5021167;28;19931;-79
2022/06/05 13:13:40;;;;;;;;;;;23.30;99.90;;;;;;4998986;28;19929;-78
2022/06/05 13:16:11;;;;;;;;;;;23.30;99.90;;;;;;5009532;28;20024;-79
2022/06/05 13:18:42;;;;;;;;;;;23.40;99.90;;;;;;5028980;28;20382;-80
2022/06/05 13:21:21;;;;;;;;;;;23.40;99.90;;;;;;5027900;28;20086;-78
2022/06/05 13:24:03;;;;;;;;;;;23.50;99.90;;;;;;5012530;28;19933;-79
2022/06/05 13:26:47;;;;;;;;;;;23.40;99.90;;;;;;5018195;28;19935;-78
2022/06/05 13:29:31;;;;;;;;;;;23.50;99.90;;;;;;5025391;28;20655;-79
2022/06/05 13:32:04;;;;;;;;;;;23.70;99.90;;;;;;5013644;28;19929;-80
2022/06/05 13:34:32;;;;;;;;;;;23.80;99.90;;;;;;5027359;28;19929;-80
2022/06/05 13:37:08;;;;;;;;;;;23.60;99.90;;;;;;4981109;28;20016;-81
2022/06/05 13:39:39;;;;;;;;;;;23.60;99.90;;;;;;5008297;28;20543;-80
2022/06/05 13:42:14;;;;;;;;;;;23.50;99.90;;;;;;5013621;28;19929;-81
2022/06/05 13:44:41;;;;;;;;;;;23.60;99.90;;;;;;5018973;28;19929;-81
2022/06/05 13:47:07;;;;;;;;;;;23.50;99.90;;;;;;5010948;28;20391;-81
2022/06/05 13:49:56;;;;;;;;;;;23.10;99.90;;;;;;5000188;28;20110;-80
2022/06/05 13:52:27;;;;;;;;;;;22.90;99.90;;;;;;5006767;28;19941;-79
2022/06/05 13:54:59;;;;;;;;;;;22.70;99.90;;;;;;5017145;28;19980;-78
2022/06/05 13:57:27;;;;;;;;;;;22.60;99.90;;;;;;5005838;28;19940;-80
2022/06/05 13:59:56;;;;;;;;;;;22.60;99.90;;;;;;5012543;28;19929;-81
2022/06/05 14:02:42;;;;;;;;;;;22.40;99.90;;;;;;5014067;28;19937;-80
2022/06/05 14:05:10;;;;;;;;;;;22.30;99.90;;;;;;5013059;28;19935;-79
2022/06/05 14:07:51;;;;;;;;;;;22.20;99.90;;;;;;4997702;28;20028;-81
2022/06/05 14:10:17;;;;;;;;;;;22.20;99.90;;;;;;5007271;28;20291;-80
2022/06/05 14:12:56;;;;;;;;;;;22.10;99.90;;;;;;5012223;28;19969;-79
2022/06/05 14:15:45;;;;;;;;;;;22.10;99.90;;;;;;5007557;28;20027;-79
2022/06/05 14:18:35;;;;;;;;;;;22.00;99.90;;;;;;4997901;28;19935;-81
2022/06/05 14:21:01;;;;;;;;;;;22.00;99.90;;;;;;4999155;28;19940;-78
2022/06/05 14:23:28;;;;;;;;;;;21.90;99.90;;;;;;4994538;28;20035;-80
2022/06/05 14:26:01;;;;;;;;;;;21.70;99.90;;;;;;5011388;28;20476;-78
2022/06/05 14:28:34;;;;;;;;;;;21.70;99.90;;;;;;5012517;28;19986;-78
2022/06/05 14:31:03;;;;;;;;;;;21.70;99.90;;;;;;5010857;28;19925;-80
2022/06/05 14:33:31;;;;;;;;;;;21.60;99.90;;;;;;4995067;28;19928;-80
2022/06/05 14:35:57;;;;;;;;;;;21.60;99.90;;;;;;4993359;28;19939;-79
2022/06/05 14:38:25;;;;;;;;;;;21.40;99.90;;;;;;5014770;28;19928;-79
2022/06/05 14:40:54;;;;;;;;;;;21.20;99.90;;;;;;5014074;28;19935;-79
2022/06/05 14:43:22;;;;;;;;;;;21.10;99.90;;;;;;5000243;28;19929;-79
2022/06/05 14:46:11;;;;;;;;;;;21.10;99.90;;;;;;5017837;28;19932;-79
2022/06/05 14:48:46;;;;;;;;;;;21.00;99.90;;;;;;5007994;28;20623;-80
2022/06/05 14:51:18;;;;;;;;;;;20.80;99.90;;;;;;4996671;28;19936;-79
2022/06/05 14:53:56;;;;;;;;;;;20.80;99.90;;;;;;5010800;28;20003;-78
2022/06/05 14:59:12;;;;;;;;;;;20.80;99.90;;;;;;5003201;28;21918;-80